Seavoyager — 9HUM8 — position and weather

sailwx.info

Track history (hours):
 
Tides and Currents Weather Stations Pressure Air Temp Water Temp Dewpoint Dewpoint Depression Visibility Wind Speed Wind Dir Waves Ship Positions

Seavoyager

Last reported at 2014-Nov-20 06:07 UTC. Time now 2014-Nov-22 00:23 UTC.
Position N 34°55' W 007°22'.

Length 273 m; draft 9.2 m.

Type: Tanker. MMSI: 256439000.

Date/timePositionNaut miles runAvg speedWind from/ knotsBaromVisibWave heightAir tempDewpointWater temp
2014-Nov-20 06:07N 34°55' W 007°22'1211.4
2014-Nov-20 05:06N 35°03' W 007°11'711.6
2014-Nov-20 04:31N 35°07' W 007°05'2511.7
2014-Nov-20 02:24N 35°24' W 006°43'7212.0
2014-Nov-19 20:24N 35°60' W 005°27'910.5
2014-Nov-19 19:33N 36°02' W 005°16'9 2.8
2014-Nov-19 16:12N 35°56' W 005°07'913.7
2014-Nov-19 15:33N 36°00' W 005°16'7 6.5
2014-Nov-19 14:33N 36°04' W 005°23'3 2.7
2014-Nov-19 13:33N 36°02' W 005°23'  
2014-Nov-12 20:33N 36°01' W 005°21'  
Track history (hours):
 
Tides and Currents Weather Stations Pressure Air Temp Water Temp Dewpoint Dewpoint Depression Visibility Wind Speed Wind Dir Waves Ship Positions

Seavoyager

Last reported at 2014-Nov-20 06:07 UTC. Time now 2014-Nov-22 00:23 UTC.
Position N 34°55' W 007°22'.

Length 273 m; draft 9.2 m.

Type: Tanker. MMSI: 256439000.

Date/timePositionNaut miles runAvg speedWind from/ knotsBaromVisibWave heightAir tempDewpointWater temp
2014-Nov-20 06:07N 34°55' W 007°22'1211.4
2014-Nov-20 05:06N 35°03' W 007°11'711.6
2014-Nov-20 04:31N 35°07' W 007°05'2511.7
2014-Nov-20 02:24N 35°24' W 006°43'7212.0
2014-Nov-19 20:24N 35°60' W 005°27'910.5
2014-Nov-19 19:33N 36°02' W 005°16'9 2.8
2014-Nov-19 16:12N 35°56' W 005°07'913.7
2014-Nov-19 15:33N 36°00' W 005°16'7 6.5
2014-Nov-19 14:33N 36°04' W 005°23'3 2.7
2014-Nov-19 13:33N 36°02' W 005°23'  
2014-Nov-12 20:33N 36°01' W 005°21'  

Dump ship's entire track history